KAND/AND METAR and TAF weather

Enter ICAO airport designator
Station Type Date Time Source
KAND METAR 2020/03/29 11:11 UTC NOAA

KAND 291111Z AUTO 20007KT 9SM SCT027 19/17 A2999 RMK AO2 T01890167


Station Type Date Time Source
KAND Decoded METAR 2020/03/29 11:11 UTC NOAA

ANDERSON COUNTY AIRPORT, SC, United States (KAND) 34-30N 82-43W 239M
Mar 29, 2020 - 07:11 AM EDT / 2020.03.29 1111 UTC
Wind: from the SSW (200 degrees) at 8 MPH (7 KT):0
Visibility: 9 mile(s):0
Sky conditions: partly cloudy
Temperature: 66.0 F (18.9 C)
Dew Point: 62.1 F (16.7 C)
Relative Humidity: 87%
Pressure (altimeter): 29.99 in. Hg (1015 hPa)
ob: KAND 291111Z AUTO 20007KT 9SM SCT027 19/17 A2999 RMK AO2 T01890167
cycle: 11

Station Type Date Time Source
KAND TAF 2020/03/29 12:24 UTC NOAA

TAF KAND 291123Z 2912/3012 22011KT P6SM SCT015 BKN250
TEMPO 2912/2915 BKN015
FM291500 24016G23KT P6SM BKN045
FM291900 25018G27KT P6SM BKN060
FM292200 26013G20KT P6SM SCT250
FM300000 26011KT P6SM SCT250
FM300500 28006KT P6SM BKN250

Example: see airport list